< Typhoon 195206 1952 Season Typhoon 195208 >
Typhoon 195207 (IVY)
General InformationTrack Information on Google Maps || Disaster Info.ResourceGoogle EarthGE AnimationAtom FeedGeoJSON
Detalied Best Track (Time Zone = UTC)
Year Month Day Hour Lat. Long. Pressure (hPa) Wind (kt) Class Image Chart
1952 8 5 00 16.2 128.3 995 0 9 -- Chart
1952 8 5 06 16.7 129.2 995 0 9 -- Chart
1952 8 5 12 17.2 130.3 995 0 9 -- Chart
1952 8 5 18 17.7 131.4 995 0 9 -- Chart
1952 8 6 00 18.2 132.5 995 0 9 -- Chart
1952 8 6 06 18.7 133.6 992 0 9 -- Chart
1952 8 6 12 19.4 135.2 992 0 9 -- Chart
1952 8 6 18 20.5 136.9 992 0 9 -- Chart
1952 8 7 00 21.8 138.3 994 0 9 -- Chart
1952 8 7 06 23.3 139.7 996 0 9 -- Chart
1952 8 7 12 25.7 140.6 998 0 9 -- Chart
1952 8 7 18 27.7 139.3 996 0 9 -- Chart
1952 8 8 00 30.0 138.9 990 0 9 -- Chart
1952 8 8 06 32.0 140.6 994 0 9 -- Chart
1952 8 8 12 34.0 142.0 998 0 9 -- Chart
1952 8 8 18 37.0 143.0 998 0 9 -- Chart
1952 8 9 00 39.5 144.0 996 0 6 -- Chart
1952 8 9 06 40.0 145.0 1000 0 6 -- Chart
1952 8 9 12 40.0 146.0 1000 0 6 -- Chart
1952 8 9 18 39.2 147.7 1000 0 6 -- Chart
1952 8 10 00 39.1 149.9 1000 0 6 -- Chart
1952 8 10 06 39.7 152.0 1000 0 6 -- Chart
1952 8 10 12 40.6 153.8 1000 0 6 -- Chart
1952 8 10 18 41.0 154.7 1000 0 6 -- Chart
1952 8 11 00 41.1 156.1 1000 0 6 -- Chart
1952 8 11 06 40.9 157.1 1000 0 6 -- Chart
1952 8 11 12 40.6 158.0 1000 0 6 -- Chart
1952 8 11 18 40.3 159.1 1000 0 6 -- Chart
1952 8 12 00 40.2 160.2 1000 0 6 -- Chart
1952 8 12 06 40.6 160.9 1002 0 6 -- Chart
1952 8 12 12 41.0 161.6 1002 0 6 -- Chart
1952 8 12 18 41.4 162.9 1002 0 6 -- Chart
1952 8 13 00 41.8 164.2 1002 0 6 -- Chart
1952 8 13 06 41.5 167.2 1004 0 6 -- Chart
1952 8 13 12 41.1 170.2 1004 0 6 -- Chart
1952 8 13 18 40.5 172.6 1004 0 6 -- Chart
1952 8 14 00 39.9 175.1 1006 0 6 -- Chart
1952 8 14 06 38.5 177.0 1006 0 6 -- Chart
1952 8 14 12 37.0 179.0 1006 0 6 -- Chart
1952 8 14 18 35.0 181.0 1008 0 6 -- Chart
Japan Meteorological Agency Best Track Data | Correction Date : 1991-07-16
< Typhoon 195206 1952 Season Typhoon 195208 >

Help